Frisia Aller — A8SB5 — position and weather

sailwx.info

Track history (hours):
 
Tides and Currents Weather Stations Pressure Air Temp Water Temp Dewpoint Dewpoint Depression Visibility Wind Speed Wind Dir Waves Ship Positions

Frisia Aller

Last reported at 2017-Dec-17 07:01 UTC. Time now 2017-Dec-18 07:15 UTC.
Position S 22°37' E 166°23'.

Length 148 m; draft 7.5 m.

Type: Ship. MMSI: 636091729.

Date/timePositionNaut miles runAvg speedWind from/ knotsBaromVisibWave heightAir tempDewpointWater temp
2017-Dec-17 07:01S 22°37' E 166°23'113.0
2017-Dec-17 06:55S 22°35' E 166°22'513.1
2017-Dec-17 06:30S 22°31' E 166°19'613.3
2017-Dec-17 06:01S 22°25' E 166°16'611.4
2017-Dec-17 05:30S 22°19' E 166°17'713.3
2017-Dec-17 05:00S 22°15' E 166°23'3 5.9
2017-Dec-17 04:28S 22°16' E 166°26'0 0.0
2017-Dec-17 03:58S 22°16' E 166°26'0 0.0
2017-Dec-17 03:28S 22°16' E 166°26'0 0.0
2017-Dec-17 02:55S 22°16' E 166°26'0 0.0
2017-Dec-17 02:28S 22°16' E 166°26'0 0.0
2017-Dec-17 01:58S 22°16' E 166°26'0 0.0
2017-Dec-17 01:28S 22°16' E 166°26'0 0.0
2017-Dec-17 00:55S 22°16' E 166°26'0 0.0
2017-Dec-17 00:28S 22°16' E 166°26'0 0.0
2017-Dec-16 23:55S 22°16' E 166°26'0 0.0
2017-Dec-16 23:28S 22°16' E 166°26'0 0.0
2017-Dec-16 22:58S 22°16' E 166°26'0 0.0
2017-Dec-16 22:28S 22°16' E 166°26'0 0.0
2017-Dec-16 21:58S 22°16' E 166°26'0 0.0
2017-Dec-16 21:28S 22°16' E 166°26'0 0.2
2017-Dec-16 21:00S 22°16' E 166°26'2 5.0
2017-Dec-16 20:30S 22°15' E 166°24'5 9.9
2017-Dec-16 20:01S 22°17' E 166°19'712.7
2017-Dec-16 19:30S 22°22' E 166°14'612.6
2017-Dec-16 19:00S 22°24' E 166°08'714.1
2017-Dec-16 18:29S 22°27' E 166°01'  
2017-Dec-14 10:49S 26°51' E 153°09'513.8
2017-Dec-14 10:30S 26°55' E 153°11'714.5
2017-Dec-14 10:00S 27°01' E 153°15'712.9
2017-Dec-14 09:28S 27°06' E 153°20'611.3
2017-Dec-14 08:59S 27°11' E 153°18'813.8
2017-Dec-14 08:22S 27°19' E 153°13'4 0.6
2017-Dec-14 02:11S 27°22' E 153°11'0 0.0
2017-Dec-13 23:56S 27°22' E 153°11'0 0.0
2017-Dec-13 21:24S 27°22' E 153°11'0 0.0
2017-Dec-13 20:59S 27°22' E 153°11'0 0.0
2017-Dec-13 20:29S 27°22' E 153°11'0 0.0
2017-Dec-13 19:59S 27°22' E 153°11'0 0.0
2017-Dec-13 18:13S 27°22' E 153°11'0 0.0
2017-Dec-13 16:52S 27°22' E 153°11'0 0.0
2017-Dec-13 16:15S 27°22' E 153°11'0 0.0
2017-Dec-13 15:46S 27°22' E 153°11'0 0.0
2017-Dec-13 15:28S 27°22' E 153°11'0 0.0
2017-Dec-13 14:59S 27°22' E 153°11'0 0.0
2017-Dec-13 14:30S 27°22' E 153°11'0 0.0
2017-Dec-13 14:00S 27°22' E 153°11'0 0.0
2017-Dec-13 13:26S 27°22' E 153°11'0 0.0
2017-Dec-13 13:00S 27°22' E 153°11'0 0.0
2017-Dec-13 12:29S 27°22' E 153°11'0 0.0
2017-Dec-13 11:59S 27°22' E 153°11'0 0.0
2017-Dec-13 11:22S 27°22' E 153°11'0 0.2
2017-Dec-13 11:00S 27°22' E 153°10'2 4.5
2017-Dec-13 10:31S 27°20' E 153°12'713.9
2017-Dec-13 10:01S 27°15' E 153°18'612.8
2017-Dec-13 09:31S 27°10' E 153°21'713.5
2017-Dec-13 09:01S 27°03' E 153°18'713.0
2017-Dec-13 08:30S 26°58' E 153°14'714.2
2017-Dec-13 08:00S 26°52' E 153°09'29 9.2
2017-Dec-13 04:48S 27°08' E 153°37'513.4
2017-Dec-13 04:24S 27°14' E 153°38'513.4
2017-Dec-13 04:00S 27°19' E 153°39'713.1
2017-Dec-13 03:30S 27°26' E 153°39'612.8
2017-Dec-13 03:00S 27°32' E 153°40'612.8
2017-Dec-13 02:30S 27°38' E 153°41'612.9
2017-Dec-13 02:00S 27°45' E 153°42'713.3
2017-Dec-13 01:31S 27°51' E 153°43'713.5
2017-Dec-13 01:01S 27°58' E 153°43'713.2
2017-Dec-13 00:30S 28°04' E 153°44'713.0
2017-Dec-13 00:00S 28°11' E 153°44'713.6
2017-Dec-12 23:30S 28°18' E 153°45'713.5
2017-Dec-12 23:00S 28°24' E 153°45'714.0
2017-Dec-12 22:30S 28°32' E 153°45'1014.5
2017-Dec-12 21:50S 28°41' E 153°45'23013.3
2017-Dec-12 04:28S 32°25' E 152°41'714.6
2017-Dec-12 04:00S 32°31' E 152°37'714.4
2017-Dec-12 03:30S 32°36' E 152°32'714.5
2017-Dec-12 03:00S 32°42' E 152°26'714.4
2017-Dec-12 02:30S 32°47' E 152°21'714.2
2017-Dec-12 02:00S 32°53' E 152°16'714.3
2017-Dec-12 01:30S 32°58' E 152°10'714.4
2017-Dec-12 01:00S 33°04' E 152°04'714.2
2017-Dec-12 00:30S 33°09' E 151°59'713.9
2017-Dec-11 23:58S 33°15' E 151°53'714.1
2017-Dec-11 23:27S 33°21' E 151°48'614.2
2017-Dec-11 23:00S 33°26' E 151°43'714.0
2017-Dec-11 22:30S 33°32' E 151°40'714.1
2017-Dec-11 22:00S 33°39' E 151°37'714.3
2017-Dec-11 21:31S 33°46' E 151°34'714.3
2017-Dec-11 21:00S 33°52' E 151°31'  
Track history (hours):
 
Tides and Currents Weather Stations Pressure Air Temp Water Temp Dewpoint Dewpoint Depression Visibility Wind Speed Wind Dir Waves Ship Positions

Frisia Aller

Last reported at 2017-Dec-17 07:01 UTC. Time now 2017-Dec-18 07:15 UTC.
Position S 22°37' E 166°23'.

Length 148 m; draft 7.5 m.

Type: Ship. MMSI: 636091729.

Date/timePositionNaut miles runAvg speedWind from/ knotsBaromVisibWave heightAir tempDewpointWater temp
2017-Dec-17 07:01S 22°37' E 166°23'113.0
2017-Dec-17 06:55S 22°35' E 166°22'513.1
2017-Dec-17 06:30S 22°31' E 166°19'613.3
2017-Dec-17 06:01S 22°25' E 166°16'611.4
2017-Dec-17 05:30S 22°19' E 166°17'713.3
2017-Dec-17 05:00S 22°15' E 166°23'3 5.9
2017-Dec-17 04:28S 22°16' E 166°26'0 0.0
2017-Dec-17 03:58S 22°16' E 166°26'0 0.0
2017-Dec-17 03:28S 22°16' E 166°26'0 0.0
2017-Dec-17 02:55S 22°16' E 166°26'0 0.0
2017-Dec-17 02:28S 22°16' E 166°26'0 0.0
2017-Dec-17 01:58S 22°16' E 166°26'0 0.0
2017-Dec-17 01:28S 22°16' E 166°26'0 0.0
2017-Dec-17 00:55S 22°16' E 166°26'0 0.0
2017-Dec-17 00:28S 22°16' E 166°26'0 0.0
2017-Dec-16 23:55S 22°16' E 166°26'0 0.0
2017-Dec-16 23:28S 22°16' E 166°26'0 0.0
2017-Dec-16 22:58S 22°16' E 166°26'0 0.0
2017-Dec-16 22:28S 22°16' E 166°26'0 0.0
2017-Dec-16 21:58S 22°16' E 166°26'0 0.0
2017-Dec-16 21:28S 22°16' E 166°26'0 0.2
2017-Dec-16 21:00S 22°16' E 166°26'2 5.0
2017-Dec-16 20:30S 22°15' E 166°24'5 9.9
2017-Dec-16 20:01S 22°17' E 166°19'712.7
2017-Dec-16 19:30S 22°22' E 166°14'612.6
2017-Dec-16 19:00S 22°24' E 166°08'714.1
2017-Dec-16 18:29S 22°27' E 166°01'  
2017-Dec-14 10:49S 26°51' E 153°09'513.8
2017-Dec-14 10:30S 26°55' E 153°11'714.5
2017-Dec-14 10:00S 27°01' E 153°15'712.9
2017-Dec-14 09:28S 27°06' E 153°20'611.3
2017-Dec-14 08:59S 27°11' E 153°18'813.8
2017-Dec-14 08:22S 27°19' E 153°13'4 0.6
2017-Dec-14 02:11S 27°22' E 153°11'0 0.0
2017-Dec-13 23:56S 27°22' E 153°11'0 0.0
2017-Dec-13 21:24S 27°22' E 153°11'0 0.0
2017-Dec-13 20:59S 27°22' E 153°11'0 0.0
2017-Dec-13 20:29S 27°22' E 153°11'0 0.0
2017-Dec-13 19:59S 27°22' E 153°11'0 0.0
2017-Dec-13 18:13S 27°22' E 153°11'0 0.0
2017-Dec-13 16:52S 27°22' E 153°11'0 0.0
2017-Dec-13 16:15S 27°22' E 153°11'0 0.0
2017-Dec-13 15:46S 27°22' E 153°11'0 0.0
2017-Dec-13 15:28S 27°22' E 153°11'0 0.0
2017-Dec-13 14:59S 27°22' E 153°11'0 0.0
2017-Dec-13 14:30S 27°22' E 153°11'0 0.0
2017-Dec-13 14:00S 27°22' E 153°11'0 0.0
2017-Dec-13 13:26S 27°22' E 153°11'0 0.0
2017-Dec-13 13:00S 27°22' E 153°11'0 0.0
2017-Dec-13 12:29S 27°22' E 153°11'0 0.0
2017-Dec-13 11:59S 27°22' E 153°11'0 0.0
2017-Dec-13 11:22S 27°22' E 153°11'0 0.2
2017-Dec-13 11:00S 27°22' E 153°10'2 4.5
2017-Dec-13 10:31S 27°20' E 153°12'713.9
2017-Dec-13 10:01S 27°15' E 153°18'612.8
2017-Dec-13 09:31S 27°10' E 153°21'713.5
2017-Dec-13 09:01S 27°03' E 153°18'713.0
2017-Dec-13 08:30S 26°58' E 153°14'714.2
2017-Dec-13 08:00S 26°52' E 153°09'29 9.2
2017-Dec-13 04:48S 27°08' E 153°37'513.4
2017-Dec-13 04:24S 27°14' E 153°38'513.4
2017-Dec-13 04:00S 27°19' E 153°39'713.1
2017-Dec-13 03:30S 27°26' E 153°39'612.8
2017-Dec-13 03:00S 27°32' E 153°40'612.8
2017-Dec-13 02:30S 27°38' E 153°41'612.9
2017-Dec-13 02:00S 27°45' E 153°42'713.3
2017-Dec-13 01:31S 27°51' E 153°43'713.5
2017-Dec-13 01:01S 27°58' E 153°43'713.2
2017-Dec-13 00:30S 28°04' E 153°44'713.0
2017-Dec-13 00:00S 28°11' E 153°44'713.6
2017-Dec-12 23:30S 28°18' E 153°45'713.5
2017-Dec-12 23:00S 28°24' E 153°45'714.0
2017-Dec-12 22:30S 28°32' E 153°45'1014.5
2017-Dec-12 21:50S 28°41' E 153°45'23013.3
2017-Dec-12 04:28S 32°25' E 152°41'714.6
2017-Dec-12 04:00S 32°31' E 152°37'714.4
2017-Dec-12 03:30S 32°36' E 152°32'714.5
2017-Dec-12 03:00S 32°42' E 152°26'714.4
2017-Dec-12 02:30S 32°47' E 152°21'714.2
2017-Dec-12 02:00S 32°53' E 152°16'714.3
2017-Dec-12 01:30S 32°58' E 152°10'714.4
2017-Dec-12 01:00S 33°04' E 152°04'714.2
2017-Dec-12 00:30S 33°09' E 151°59'713.9
2017-Dec-11 23:58S 33°15' E 151°53'714.1
2017-Dec-11 23:27S 33°21' E 151°48'614.2
2017-Dec-11 23:00S 33°26' E 151°43'714.0
2017-Dec-11 22:30S 33°32' E 151°40'714.1
2017-Dec-11 22:00S 33°39' E 151°37'714.3
2017-Dec-11 21:31S 33°46' E 151°34'714.3
2017-Dec-11 21:00S 33°52' E 151°31'  

Dump ship's entire track history